createdAt,value
2023-02-19T00:00:00.545Z,16.40
2023-02-19T00:05:02.513Z,16.30
2023-02-19T00:10:04.349Z,16.40
2023-02-19T00:15:06.063Z,16.30
2023-02-19T00:20:08.024Z,16.30
2023-02-19T00:25:09.882Z,16.30
2023-02-19T00:30:12.089Z,16.30
2023-02-19T00:35:13.893Z,16.30
2023-02-19T00:40:15.689Z,16.30
2023-02-19T00:45:17.571Z,16.30
2023-02-19T00:50:19.746Z,16.30
2023-02-19T00:55:21.530Z,16.30
2023-02-19T01:00:23.360Z,16.30
2023-02-19T01:05:25.202Z,16.30
2023-02-19T01:10:27.052Z,16.30
2023-02-19T01:15:28.848Z,16.20
2023-02-19T01:20:30.606Z,16.30
2023-02-19T01:25:32.416Z,16.30
2023-02-19T01:30:35.700Z,16.20
2023-02-19T01:35:40.347Z,16.20
2023-02-19T01:40:42.173Z,16.30
2023-02-19T01:45:45.260Z,16.20
2023-02-19T01:50:52.305Z,16.20
2023-02-19T01:55:55.728Z,16.20
2023-02-19T02:06:21.510Z,16.20
2023-02-19T02:11:23.201Z,16.10
2023-02-19T02:16:44.349Z,16.10
2023-02-19T02:21:57.462Z,16.20
2023-02-19T02:26:59.647Z,16.20
2023-02-19T02:32:05.969Z,16.10
2023-02-19T02:37:08.471Z,16.10
2023-02-19T02:42:28.362Z,16.10
2023-02-19T02:47:42.456Z,16.10
2023-02-19T02:53:03.718Z,16.10
2023-02-19T02:58:05.515Z,16.10
2023-02-19T03:03:07.142Z,16.10
2023-02-19T03:08:11.700Z,16.10
2023-02-19T03:13:34.130Z,16.10
2023-02-19T03:18:55.574Z,16.10
2023-02-19T03:24:16.271Z,16.10
2023-02-19T03:29:23.782Z,16.10
2023-02-19T03:34:27.340Z,16.10
2023-02-19T03:39:28.982Z,16.10
2023-02-19T03:44:39.498Z,16.10
2023-02-19T03:49:44.334Z,16.10
2023-02-19T03:54:51.188Z,16.10
2023-02-19T03:59:55.659Z,16.10
2023-02-19T04:05:06.449Z,16.10
2023-02-19T04:10:09.035Z,16.10
2023-02-19T04:15:12.494Z,16.10
2023-02-19T04:20:14.486Z,16.10
2023-02-19T04:25:16.228Z,16.10
2023-02-19T04:30:17.960Z,16.10
2023-02-19T04:35:19.623Z,16.10
2023-02-19T04:40:21.326Z,16.00
2023-02-19T04:45:23.059Z,16.00
2023-02-19T06:02:31.776Z,15.90
2023-02-19T06:07:34.049Z,15.90
2023-02-19T06:12:35.687Z,16.00
2023-02-19T06:17:37.446Z,15.90
2023-02-19T06:22:39.297Z,15.90
2023-02-19T06:27:41.071Z,15.90
2023-02-19T06:32:42.833Z,15.90
2023-02-19T06:37:46.361Z,15.90
2023-02-19T06:42:48.339Z,15.90
2023-02-19T06:47:50.142Z,15.90
2023-02-19T06:52:51.913Z,15.90
2023-02-19T06:57:53.709Z,15.90
2023-02-19T07:02:56.750Z,15.90
2023-02-19T07:07:58.656Z,15.90
2023-02-19T07:13:00.716Z,15.90
2023-02-19T07:18:02.697Z,15.90
2023-02-19T07:23:04.392Z,15.90
2023-02-19T07:28:06.304Z,15.90
2023-02-19T07:33:10.351Z,15.90
2023-02-19T07:38:12.238Z,15.90
2023-02-19T07:43:14.015Z,15.90
2023-02-19T07:48:15.855Z,15.90
2023-02-19T07:53:17.678Z,15.90
2023-02-19T07:58:19.467Z,15.90
2023-02-19T08:03:24.449Z,15.90
2023-02-19T08:08:26.226Z,15.90
2023-02-19T08:13:30.234Z,15.90
2023-02-19T08:18:32.945Z,15.90
2023-02-19T08:23:34.677Z,15.90
2023-02-19T08:28:36.502Z,15.90
2023-02-19T08:33:38.419Z,15.90
2023-02-19T08:38:40.095Z,15.90
2023-02-19T08:43:42.319Z,15.90
2023-02-19T08:48:44.136Z,15.90
2023-02-19T08:53:46.090Z,15.90
2023-02-19T08:58:47.968Z,15.90
2023-02-19T09:03:49.704Z,15.80
2023-02-19T09:08:51.469Z,15.90
2023-02-19T09:13:55.414Z,15.90
2023-02-19T09:18:57.235Z,15.90
2023-02-19T09:23:58.993Z,15.80
2023-02-19T09:29:00.864Z,15.80
2023-02-19T09:34:02.626Z,15.80
2023-02-19T09:39:06.725Z,15.80
2023-02-19T09:44:10.272Z,15.80
2023-02-19T09:49:16.020Z,15.80
2023-02-19T09:54:22.691Z,15.80
2023-02-19T09:59:26.038Z,15.80
2023-02-19T10:04:27.983Z,15.80
2023-02-19T10:09:30.617Z,15.80
2023-02-19T10:14:52.733Z,15.80
2023-02-19T10:19:54.444Z,15.80
2023-02-19T10:24:56.562Z,15.80
2023-02-19T10:29:58.943Z,15.80
2023-02-19T10:35:20.956Z,15.80
2023-02-19T10:40:24.848Z,15.80
2023-02-19T10:45:39.714Z,15.80
2023-02-19T10:50:48.097Z,15.80
2023-02-19T10:56:05.532Z,15.80
2023-02-19T11:01:12.001Z,15.80
2023-02-19T11:06:15.114Z,15.80
2023-02-19T11:11:22.967Z,15.80
2023-02-19T11:16:36.473Z,15.80
2023-02-19T11:21:38.291Z,15.80
2023-02-19T11:26:40.062Z,15.90
2023-02-19T11:31:41.824Z,15.90
2023-02-19T11:36:43.546Z,15.90
2023-02-19T11:42:03.976Z,15.90
2023-02-19T11:47:24.321Z,15.90
2023-02-19T11:52:35.678Z,16.00
2023-02-19T11:57:37.354Z,16.20
2023-02-19T12:02:41.797Z,16.40
2023-02-19T12:07:49.416Z,16.70
2023-02-19T12:13:00.774Z,16.90
2023-02-19T12:18:13.507Z,17.10
2023-02-19T12:23:34.093Z,17.20
2023-02-19T12:28:48.626Z,17.30
2023-02-19T12:33:58.494Z,17.40
2023-02-19T12:39:03.439Z,17.50
2023-02-19T12:44:17.235Z,17.50
2023-02-19T12:49:40.310Z,17.50
2023-02-19T12:54:44.039Z,17.50
2023-02-19T12:59:48.986Z,17.60
2023-02-19T13:05:04.438Z,17.70
2023-02-19T13:10:15.452Z,17.70
2023-02-19T13:15:35.906Z,17.70
2023-02-19T13:20:42.479Z,17.70
2023-02-19T13:25:56.753Z,17.70
2023-02-19T13:30:59.277Z,17.70
2023-02-19T13:36:05.867Z,17.70
2023-02-19T13:41:16.882Z,17.70
2023-02-19T13:46:19.247Z,17.70
2023-02-19T13:51:23.975Z,17.70
2023-02-19T13:56:34.797Z,17.80
2023-02-19T14:01:51.856Z,17.90
2023-02-19T14:07:03.034Z,17.80
2023-02-19T14:12:17.714Z,17.80
2023-02-19T14:17:37.495Z,17.80
2023-02-19T14:22:45.393Z,17.90
2023-02-19T14:27:47.677Z,18.00
2023-02-19T14:32:54.621Z,18.10
2023-02-19T14:38:00.548Z,18.10
2023-02-19T14:43:02.546Z,18.10
2023-02-19T14:48:05.990Z,18.00
2023-02-19T14:53:07.925Z,17.90
2023-02-19T14:58:15.730Z,17.90
2023-02-19T15:03:26.469Z,17.70
2023-02-19T15:08:31.503Z,17.70
2023-02-19T15:13:33.312Z,17.60
2023-02-19T15:18:37.599Z,17.60
2023-02-19T15:23:39.346Z,17.70
2023-02-19T15:28:41.053Z,17.80
2023-02-19T15:33:50.322Z,17.90
2023-02-19T15:38:56.840Z,18.00
2023-02-19T15:44:17.118Z,18.10
2023-02-19T15:49:21.390Z,18.30
2023-02-19T15:54:27.190Z,18.30
2023-02-19T15:59:36.473Z,18.30
2023-02-19T16:04:38.531Z,18.30
2023-02-19T16:09:40.199Z,18.20
2023-02-19T16:14:41.946Z,18.10
2023-02-19T16:19:43.767Z,18.10
2023-02-19T16:24:46.870Z,18.00
2023-02-19T16:29:50.403Z,17.90
2023-02-19T16:34:52.380Z,17.90
2023-02-19T16:40:05.578Z,17.90
2023-02-19T16:45:08.107Z,17.90
2023-02-19T16:50:14.850Z,17.90
2023-02-19T16:55:16.592Z,17.90
2023-02-19T17:00:19.317Z,17.90
2023-02-19T17:05:21.653Z,18.00
2023-02-19T17:10:24.144Z,17.90
2023-02-19T17:15:26.019Z,18.00
2023-02-19T17:20:29.540Z,17.90
2023-02-19T17:25:31.238Z,17.90
2023-02-19T17:30:33.253Z,17.90
2023-02-19T17:35:35.024Z,17.90
2023-02-19T17:40:37.513Z,17.90
2023-02-19T17:45:39.414Z,17.90
2023-02-19T17:50:41.439Z,17.80
2023-02-19T17:55:43.238Z,17.90
2023-02-19T18:00:45.150Z,17.90
2023-02-19T18:05:46.947Z,17.90
2023-02-19T18:10:48.833Z,17.90
2023-02-19T18:15:50.693Z,17.90
2023-02-19T18:20:52.433Z,17.90
2023-02-19T18:25:54.171Z,17.80
2023-02-19T18:30:56.099Z,17.80
2023-02-19T18:35:57.867Z,17.80
2023-02-19T18:40:59.638Z,17.90
2023-02-19T18:46:01.354Z,17.80
2023-02-19T18:51:03.082Z,17.80
2023-02-19T18:56:05.555Z,17.80
2023-02-19T19:01:07.400Z,17.80
2023-02-19T19:06:09.266Z,17.80
2023-02-19T19:11:11.551Z,17.70
2023-02-19T19:16:13.522Z,17.70
2023-02-19T19:21:15.601Z,17.80
2023-02-19T19:26:19.690Z,17.80
2023-02-19T19:31:21.931Z,17.80
2023-02-19T19:36:23.835Z,17.80
2023-02-19T19:41:25.554Z,17.80
2023-02-19T19:46:27.439Z,17.90
2023-02-19T19:51:32.788Z,17.90
2023-02-19T19:56:39.594Z,17.90
2023-02-19T20:01:47.871Z,17.90
2023-02-19T20:06:49.847Z,17.90
2023-02-19T20:11:52.591Z,17.90
2023-02-19T20:16:55.015Z,17.90
2023-02-19T20:21:56.830Z,17.90
2023-02-19T20:27:00.439Z,18.00
2023-02-19T20:32:03.827Z,17.90
2023-02-19T20:37:06.058Z,18.00
2023-02-19T20:42:07.920Z,17.90
2023-02-19T20:47:09.654Z,17.90
2023-02-19T20:52:11.259Z,17.90
2023-02-19T20:57:13.839Z,17.80
2023-02-19T21:02:17.694Z,17.80
2023-02-19T21:07:19.910Z,17.70
2023-02-19T21:12:22.281Z,17.70
2023-02-19T21:17:24.114Z,17.60
2023-02-19T21:22:25.893Z,17.60
2023-02-19T21:27:28.223Z,17.50
2023-02-19T21:32:30.055Z,17.50
2023-02-19T21:37:31.900Z,17.40
2023-02-19T21:42:33.793Z,17.30
2023-02-19T21:47:35.608Z,17.30
2023-02-19T21:52:37.496Z,17.30
2023-02-19T21:57:39.282Z,17.30
2023-02-19T22:02:41.825Z,17.30
2023-02-19T22:07:43.836Z,17.30
2023-02-19T22:12:46.676Z,17.20
2023-02-19T22:17:48.846Z,17.20
2023-02-19T22:22:50.893Z,17.20
2023-02-19T22:27:52.639Z,17.20
2023-02-19T22:32:54.341Z,17.20
2023-02-19T22:37:55.928Z,17.10
2023-02-19T22:42:57.862Z,17.10
2023-02-19T22:47:59.630Z,17.10
2023-02-19T22:53:01.508Z,17.00
2023-02-19T22:58:03.419Z,17.00
2023-02-19T23:03:05.148Z,16.90
2023-02-19T23:08:06.894Z,16.90
2023-02-19T23:13:08.731Z,16.90
2023-02-19T23:18:10.554Z,16.90
2023-02-19T23:23:12.213Z,16.90
2023-02-19T23:28:14.145Z,16.80
2023-02-19T23:33:15.888Z,16.80
2023-02-19T23:38:17.798Z,16.80
2023-02-19T23:43:19.593Z,16.80
2023-02-19T23:48:21.426Z,16.80
2023-02-19T23:53:23.222Z,16.70
2023-02-19T23:58:24.994Z,16.70
